createdAt,value
2019-06-27T00:02:34.770Z,78.10
2019-06-27T00:05:12.666Z,78.50
2019-06-27T00:07:52.632Z,78.50
2019-06-27T00:10:34.248Z,78.50
2019-06-27T00:13:10.457Z,78.20
2019-06-27T00:15:49.591Z,78.50
2019-06-27T00:18:26.685Z,78.60
2019-06-27T00:21:07.641Z,78.70
2019-06-27T00:23:50.092Z,78.80
2019-06-27T00:26:29.094Z,78.80
2019-06-27T00:29:06.121Z,78.80
2019-06-27T00:31:44.371Z,79.20
2019-06-27T00:34:20.089Z,79.20
2019-06-27T00:36:56.482Z,79.30
2019-06-27T00:39:31.523Z,79.50
2019-06-27T00:42:13.581Z,79.40
2019-06-27T00:44:53.050Z,79.70
2019-06-27T00:47:28.510Z,79.50
2019-06-27T00:50:07.434Z,79.60
2019-06-27T00:52:52.503Z,79.30
2019-06-27T00:55:30.099Z,79.10
2019-06-27T00:58:07.093Z,78.90
2019-06-27T01:00:45.586Z,78.80
2019-06-27T01:03:30.099Z,78.40
2019-06-27T01:06:05.119Z,78.10
2019-06-27T01:08:44.624Z,78.50
2019-06-27T01:11:20.101Z,78.30
2019-06-27T01:13:59.595Z,78.50
2019-06-27T01:16:36.091Z,78.40
2019-06-27T01:19:13.097Z,78.50
2019-06-27T01:21:49.396Z,78.40
2019-06-27T01:24:27.305Z,78.70
2019-06-27T01:27:03.968Z,78.80
2019-06-27T01:29:39.414Z,79.40
2019-06-27T01:32:16.502Z,79.90
2019-06-27T01:34:53.984Z,80.20
2019-06-27T01:37:34.553Z,80.50
2019-06-27T01:40:16.751Z,80.90
2019-06-27T01:42:53.666Z,80.90
2019-06-27T01:45:46.681Z,81.00
2019-06-27T01:48:24.584Z,81.20
2019-06-27T01:51:02.113Z,81.30
2019-06-27T01:53:40.387Z,81.60
2019-06-27T01:56:16.647Z,81.50
2019-06-27T01:58:53.322Z,80.90
2019-06-27T02:01:29.595Z,81.10
2019-06-27T02:04:06.111Z,80.50
2019-06-27T02:06:41.119Z,79.40
2019-06-27T02:09:18.573Z,79.00
2019-06-27T02:11:55.453Z,78.90
2019-06-27T02:14:31.313Z,79.30
2019-06-27T02:17:10.453Z,79.00
2019-06-27T02:19:46.127Z,78.90
2019-06-27T02:22:26.644Z,79.00
2019-06-27T02:25:03.334Z,79.30
2019-06-27T02:27:43.688Z,79.80
2019-06-27T02:30:29.599Z,80.20
2019-06-27T02:33:06.443Z,80.40
2019-06-27T02:35:50.092Z,80.00
2019-06-27T02:38:25.318Z,80.00
2019-06-27T02:41:03.632Z,79.90
2019-06-27T02:43:40.706Z,80.40
2019-06-27T02:46:18.418Z,80.80
2019-06-27T02:48:54.471Z,80.80
2019-06-27T02:51:32.775Z,80.60
2019-06-27T02:54:11.109Z,80.80
2019-06-27T02:56:46.534Z,81.30
2019-06-27T02:59:22.784Z,81.50
2019-06-27T03:02:03.778Z,81.60
2019-06-27T03:04:41.659Z,81.70
2019-06-27T03:07:20.588Z,82.10
2019-06-27T03:10:01.390Z,82.40
2019-06-27T03:12:40.706Z,81.90
2019-06-27T03:15:20.639Z,81.50
2019-06-27T03:17:59.975Z,81.80
2019-06-27T03:20:38.707Z,81.90
2019-06-27T03:23:20.484Z,81.80
2019-06-27T03:25:56.113Z,81.70
2019-06-27T03:28:50.549Z,81.60
2019-06-27T03:31:17.134Z,81.80
2019-06-27T03:33:56.802Z,81.90
2019-06-27T03:36:33.469Z,81.50
2019-06-27T03:39:09.322Z,81.70
2019-06-27T03:41:48.111Z,81.60
2019-06-27T03:44:24.099Z,81.60
2019-06-27T03:47:00.976Z,82.50
2019-06-27T03:49:35.600Z,82.50
2019-06-27T03:52:11.114Z,82.70
2019-06-27T03:54:49.566Z,82.80
2019-06-27T03:57:24.799Z,83.00
2019-06-27T04:00:02.208Z,83.60
2019-06-27T04:02:37.333Z,83.60
2019-06-27T04:05:13.378Z,83.80
2019-06-27T04:07:49.436Z,83.80
2019-06-27T04:10:27.542Z,83.90
2019-06-27T04:13:04.828Z,83.70
2019-06-27T04:15:41.138Z,83.90
2019-06-27T04:18:17.128Z,83.90
2019-06-27T04:20:53.627Z,83.90
2019-06-27T04:23:30.699Z,83.70
2019-06-27T04:26:08.600Z,83.60
2019-06-27T04:28:44.657Z,84.00
2019-06-27T04:42:17.541Z,84.00
2019-06-27T04:52:52.591Z,84.50
2019-06-27T04:55:29.684Z,84.50
2019-06-27T04:58:06.756Z,84.50
2019-06-27T05:00:46.711Z,84.50
2019-06-27T05:07:02.528Z,84.60
2019-06-27T05:22:50.746Z,84.90
2019-06-27T05:25:31.708Z,85.30
2019-06-27T05:28:09.131Z,85.30
2019-06-27T05:30:50.428Z,85.50
2019-06-27T05:33:29.521Z,86.00
2019-06-27T05:53:29.650Z,85.20
2019-06-27T05:56:09.581Z,85.30
2019-06-27T06:02:16.395Z,85.00
2019-06-27T06:05:10.075Z,84.40
2019-06-27T06:07:46.726Z,84.10
2019-06-27T06:29:08.200Z,81.80
2019-06-27T06:31:44.417Z,80.80
2019-06-27T06:37:27.680Z,79.90
2019-06-27T06:56:09.317Z,79.80
2019-06-27T06:58:59.139Z,79.50
2019-06-27T07:17:03.788Z,80.70
2019-06-27T07:23:15.207Z,80.50
2019-06-27T07:25:55.618Z,81.30
2019-06-27T07:29:04.367Z,80.70
2019-06-27T07:35:32.135Z,80.10
2019-06-27T07:38:35.424Z,80.00
2019-06-27T07:41:19.086Z,78.90
2019-06-27T07:51:08.680Z,79.40
2019-06-27T07:54:27.954Z,78.00
2019-06-27T08:00:39.886Z,77.60
2019-06-27T08:03:17.973Z,76.50
2019-06-27T08:09:24.800Z,75.10
2019-06-27T08:15:35.665Z,75.20
2019-06-27T08:21:45.740Z,76.10
2019-06-27T08:27:52.136Z,74.90
2019-06-27T08:37:37.034Z,74.40
2019-06-27T08:40:28.358Z,74.30
2019-06-27T08:43:21.287Z,74.10
2019-06-27T08:46:04.752Z,73.30
2019-06-27T08:49:04.963Z,71.20
2019-06-27T08:51:43.676Z,69.50
2019-06-27T08:54:20.335Z,69.40
2019-06-27T08:56:57.635Z,69.40
2019-06-27T08:59:34.234Z,69.90
2019-06-27T09:02:09.563Z,68.90
2019-06-27T09:04:50.725Z,69.60
2019-06-27T09:07:26.779Z,69.90
2019-06-27T09:11:04.896Z,69.90
2019-06-27T09:14:39.872Z,70.50
2019-06-27T09:26:23.627Z,71.40
2019-06-27T09:42:27.013Z,71.90
2019-06-27T09:45:06.136Z,71.70
2019-06-27T09:53:49.824Z,72.20
2019-06-27T09:56:24.263Z,72.90
2019-06-27T09:58:58.270Z,72.70
2019-06-27T10:04:37.795Z,73.00
2019-06-27T10:11:28.657Z,72.20
2019-06-27T10:17:45.278Z,71.90
2019-06-27T10:20:20.692Z,72.00
2019-06-27T10:22:57.579Z,72.20
2019-06-27T10:28:55.765Z,72.00
2019-06-27T10:38:48.670Z,71.90
2019-06-27T10:41:24.765Z,72.40
2019-06-27T10:44:01.186Z,72.60
2019-06-27T10:46:35.815Z,72.90
2019-06-27T10:59:39.787Z,73.80
2019-06-27T11:08:07.319Z,73.90
2019-06-27T11:10:51.155Z,73.70
2019-06-27T11:13:33.117Z,73.80
2019-06-27T11:19:51.851Z,73.00
2019-06-27T11:22:22.735Z,73.80
2019-06-27T11:25:35.936Z,74.30
2019-06-27T11:28:18.880Z,73.50
2019-06-27T11:31:03.136Z,73.00
2019-06-27T11:33:40.823Z,73.40
2019-06-27T11:36:19.259Z,73.20
2019-06-27T11:38:55.808Z,72.80
2019-06-27T11:41:47.419Z,72.80
2019-06-27T11:51:02.046Z,73.70
2019-06-27T11:53:41.164Z,73.40
2019-06-27T11:56:17.833Z,73.30
2019-06-27T11:58:58.807Z,73.10
2019-06-27T12:01:36.205Z,73.70
2019-06-27T12:04:16.857Z,73.30
2019-06-27T12:06:54.034Z,73.20
2019-06-27T12:09:31.632Z,70.50
2019-06-27T12:12:14.877Z,71.10
2019-06-27T12:14:54.605Z,69.90
2019-06-27T12:24:01.623Z,69.20
2019-06-27T12:26:37.685Z,69.30
2019-06-27T12:33:47.147Z,68.50
2019-06-27T12:40:14.842Z,68.70
2019-06-27T12:53:41.962Z,71.00
2019-06-27T12:56:19.334Z,70.90
2019-06-27T12:58:55.336Z,70.60
2019-06-27T13:05:11.923Z,70.10
2019-06-27T13:07:51.868Z,70.40
2019-06-27T13:10:37.552Z,69.80
2019-06-27T13:20:30.866Z,69.40
2019-06-27T13:23:08.556Z,68.80
2019-06-27T13:25:47.687Z,69.70
2019-06-27T13:28:26.610Z,68.80
2019-06-27T13:31:28.879Z,68.50
2019-06-27T13:34:36.080Z,68.80
2019-06-27T13:37:02.386Z,68.80
2019-06-27T13:49:45.334Z,67.40
2019-06-27T13:56:08.166Z,67.60
2019-06-27T14:01:53.855Z,67.30
2019-06-27T14:08:17.252Z,68.50
2019-06-27T14:14:16.353Z,67.40
2019-06-27T14:16:54.980Z,67.50
2019-06-27T14:19:57.873Z,68.50
2019-06-27T14:25:39.352Z,65.70
2019-06-27T14:31:50.360Z,65.20
2019-06-27T14:34:44.858Z,67.20
2019-06-27T14:37:30.726Z,68.00
2019-06-27T14:40:36.928Z,68.50
2019-06-27T14:43:32.009Z,68.60
2019-06-27T14:46:46.603Z,68.10
2019-06-27T14:49:38.197Z,66.80
2019-06-27T14:52:21.373Z,65.80
2019-06-27T14:55:07.713Z,65.30
2019-06-27T15:11:44.893Z,65.70
2019-06-27T15:18:02.506Z,64.70
2019-06-27T15:20:43.954Z,64.80
2019-06-27T15:46:59.044Z,64.10
2019-06-27T15:49:40.415Z,63.90
2019-06-27T15:56:54.635Z,63.10
2019-06-27T16:03:10.196Z,63.50
2019-06-27T16:18:41.005Z,61.80
2019-06-27T16:22:19.380Z,62.60
2019-06-27T16:24:58.379Z,62.10
2019-06-27T16:33:42.747Z,62.00
2019-06-27T16:40:40.750Z,61.80
2019-06-27T16:43:21.399Z,62.30
2019-06-27T16:49:26.890Z,62.80
2019-06-27T16:55:07.882Z,63.10
2019-06-27T16:57:44.946Z,62.70
2019-06-27T17:00:21.621Z,61.90
2019-06-27T17:12:26.621Z,58.60
2019-06-27T17:21:12.409Z,61.00
2019-06-27T17:23:47.414Z,62.50
2019-06-27T17:29:36.426Z,64.20
2019-06-27T17:36:16.143Z,64.90
2019-06-27T17:42:40.423Z,65.80
2019-06-27T17:49:06.287Z,66.40
2019-06-27T17:51:48.289Z,67.80
2019-06-27T18:10:58.944Z,69.30
2019-06-27T18:17:01.844Z,69.90
2019-06-27T18:23:47.753Z,70.10
2019-06-27T18:40:13.659Z,71.50
2019-06-27T18:55:39.769Z,72.80
2019-06-27T19:01:16.061Z,73.30
2019-06-27T19:07:47.018Z,74.40
2019-06-27T19:10:40.278Z,74.70
2019-06-27T19:13:40.911Z,74.90
2019-06-27T19:16:29.454Z,74.90
2019-06-27T19:19:30.435Z,75.10
2019-06-27T19:51:55.074Z,77.30
2019-06-27T19:54:46.907Z,77.40
2019-06-27T19:57:43.026Z,77.60
2019-06-27T20:00:42.044Z,77.80
2019-06-27T20:06:40.456Z,77.90
2019-06-27T20:13:47.844Z,77.80
2019-06-27T20:16:07.453Z,77.80
2019-06-27T20:29:20.912Z,77.70
2019-06-27T20:32:10.282Z,77.80
2019-06-27T20:34:50.434Z,77.50
2019-06-27T20:41:04.469Z,77.60
2019-06-27T20:43:45.472Z,77.40
2019-06-27T20:46:38.460Z,77.40
2019-06-27T20:49:18.170Z,77.40
2019-06-27T21:02:38.939Z,77.10
2019-06-27T21:09:19.945Z,77.50
2019-06-27T21:12:03.983Z,77.50
2019-06-27T21:18:38.481Z,77.90
2019-06-27T21:25:14.102Z,78.10
2019-06-27T21:28:10.854Z,78.30
2019-06-27T21:37:27.287Z,78.10
2019-06-27T21:40:09.085Z,77.70
2019-06-27T21:52:33.128Z,77.60
2019-06-27T21:55:37.030Z,77.20
2019-06-27T22:05:18.498Z,77.50
2019-06-27T22:11:35.901Z,77.60
2019-06-27T22:31:03.524Z,78.30
2019-06-27T22:37:08.421Z,78.40
2019-06-27T22:43:47.991Z,78.60
2019-06-27T22:46:56.496Z,78.80
2019-06-27T22:49:51.710Z,78.90
2019-06-27T22:56:10.998Z,79.50
2019-06-27T22:58:53.838Z,79.60
2019-06-27T23:01:29.550Z,79.80
2019-06-27T23:04:07.499Z,80.10
2019-06-27T23:09:58.185Z,80.10
2019-06-27T23:13:12.952Z,80.40
2019-06-27T23:19:24.253Z,80.70
2019-06-27T23:25:46.501Z,81.20
2019-06-27T23:31:41.740Z,81.20
2019-06-27T23:38:03.279Z,81.20
2019-06-27T23:44:27.693Z,81.60
2019-06-27T23:50:29.171Z,81.60
2019-06-27T23:56:43.944Z,81.50
